sensor_id;sensor_type;location;lat;lon;timestamp;P1;durP1;ratioP1;P2;durP2;ratioP2
32321;SDS011;61553;48.994;8.940;2024-02-26T00:02:16;2.92;;;1.40;;
32321;SDS011;61553;48.994;8.940;2024-02-26T00:04:41;3.63;;;1.60;;
32321;SDS011;61553;48.994;8.940;2024-02-26T00:07:07;3.67;;;1.45;;
32321;SDS011;61553;48.994;8.940;2024-02-26T00:09:33;4.55;;;1.63;;
32321;SDS011;61553;48.994;8.940;2024-02-26T00:12:04;3.90;;;1.77;;
32321;SDS011;61553;48.994;8.940;2024-02-26T00:14:30;2.88;;;1.40;;
32321;SDS011;61553;48.994;8.940;2024-02-26T00:16:56;4.30;;;1.67;;
32321;SDS011;61553;48.994;8.940;2024-02-26T00:19:21;2.85;;;1.60;;
32321;SDS011;61553;48.994;8.940;2024-02-26T00:21:47;3.20;;;1.60;;
32321;SDS011;61553;48.994;8.940;2024-02-26T00:24:12;4.32;;;1.80;;
32321;SDS011;61553;48.994;8.940;2024-02-26T00:26:38;3.10;;;1.48;;
32321;SDS011;61553;48.994;8.940;2024-02-26T00:29:04;3.92;;;1.50;;
32321;SDS011;61553;48.994;8.940;2024-02-26T00:31:30;3.17;;;1.30;;
32321;SDS011;61553;48.994;8.940;2024-02-26T00:33:55;3.85;;;1.75;;
32321;SDS011;61553;48.994;8.940;2024-02-26T00:36:21;7.38;;;2.13;;
32321;SDS011;61553;48.994;8.940;2024-02-26T00:38:47;6.45;;;2.22;;
32321;SDS011;61553;48.994;8.940;2024-02-26T00:41:16;4.28;;;1.70;;
32321;SDS011;61553;48.994;8.940;2024-02-26T00:43:42;3.92;;;2.03;;
32321;SDS011;61553;48.994;8.940;2024-02-26T00:46:08;3.80;;;1.63;;
32321;SDS011;61553;48.994;8.940;2024-02-26T00:48:33;10.15;;;4.18;;
32321;SDS011;61553;48.994;8.940;2024-02-26T00:50:59;6.60;;;2.58;;
32321;SDS011;61553;48.994;8.940;2024-02-26T00:53:25;3.97;;;2.00;;
32321;SDS011;61553;48.994;8.940;2024-02-26T00:55:50;5.13;;;2.45;;
32321;SDS011;61553;48.994;8.940;2024-02-26T00:58:16;4.10;;;1.83;;
32321;SDS011;61553;48.994;8.940;2024-02-26T01:00:42;4.90;;;1.60;;
32321;SDS011;61553;48.994;8.940;2024-02-26T01:03:07;3.97;;;2.10;;
32321;SDS011;61553;48.994;8.940;2024-02-26T01:05:34;6.53;;;3.08;;
32321;SDS011;61553;48.994;8.940;2024-02-26T01:08:01;7.40;;;2.75;;
32321;SDS011;61553;48.994;8.940;2024-02-26T01:10:27;8.23;;;3.55;;
32321;SDS011;61553;48.994;8.940;2024-02-26T01:12:53;8.20;;;3.30;;
32321;SDS011;61553;48.994;8.940;2024-02-26T01:15:18;5.57;;;2.50;;
32321;SDS011;61553;48.994;8.940;2024-02-26T01:17:47;7.80;;;2.55;;
32321;SDS011;61553;48.994;8.940;2024-02-26T01:20:12;7.63;;;3.10;;
32321;SDS011;61553;48.994;8.940;2024-02-26T01:22:38;4.88;;;2.38;;
32321;SDS011;61553;48.994;8.940;2024-02-26T01:25:05;5.57;;;2.40;;
32321;SDS011;61553;48.994;8.940;2024-02-26T01:27:32;4.10;;;1.90;;
32321;SDS011;61553;48.994;8.940;2024-02-26T01:29:58;4.53;;;1.95;;
32321;SDS011;61553;48.994;8.940;2024-02-26T01:32:23;5.47;;;2.30;;
32321;SDS011;61553;48.994;8.940;2024-02-26T01:34:49;5.40;;;2.47;;
32321;SDS011;61553;48.994;8.940;2024-02-26T01:37:15;4.50;;;2.00;;
32321;SDS011;61553;48.994;8.940;2024-02-26T01:39:40;3.25;;;1.95;;
32321;SDS011;61553;48.994;8.940;2024-02-26T01:42:06;4.55;;;1.60;;
32321;SDS011;61553;48.994;8.940;2024-02-26T01:44:35;3.35;;;1.55;;
32321;SDS011;61553;48.994;8.940;2024-02-26T01:47:00;4.20;;;2.15;;
32321;SDS011;61553;48.994;8.940;2024-02-26T01:49:27;4.68;;;2.22;;
32321;SDS011;61553;48.994;8.940;2024-02-26T01:51:54;4.72;;;2.08;;
32321;SDS011;61553;48.994;8.940;2024-02-26T01:54:20;4.95;;;2.17;;
32321;SDS011;61553;48.994;8.940;2024-02-26T01:56:46;5.93;;;2.30;;
32321;SDS011;61553;48.994;8.940;2024-02-26T01:59:12;3.92;;;1.90;;
32321;SDS011;61553;48.994;8.940;2024-02-26T02:01:38;4.95;;;1.60;;
32321;SDS011;61553;48.994;8.940;2024-02-26T02:04:08;4.43;;;2.20;;
32321;SDS011;61553;48.994;8.940;2024-02-26T02:06:33;4.55;;;1.75;;
32321;SDS011;61553;48.994;8.940;2024-02-26T02:09:01;4.15;;;1.70;;
32321;SDS011;61553;48.994;8.940;2024-02-26T02:11:31;3.25;;;1.80;;
32321;SDS011;61553;48.994;8.940;2024-02-26T02:13:58;5.10;;;2.53;;
32321;SDS011;61553;48.994;8.940;2024-02-26T02:16:23;5.70;;;2.22;;
32321;SDS011;61553;48.994;8.940;2024-02-26T02:18:49;5.75;;;2.28;;
32321;SDS011;61553;48.994;8.940;2024-02-26T02:21:15;4.60;;;2.03;;
32321;SDS011;61553;48.994;8.940;2024-02-26T02:23:40;4.13;;;1.98;;
32321;SDS011;61553;48.994;8.940;2024-02-26T02:26:11;4.72;;;1.80;;
32321;SDS011;61553;48.994;8.940;2024-02-26T02:28:40;4.78;;;2.13;;
32321;SDS011;61553;48.994;8.940;2024-02-26T02:31:06;4.97;;;2.05;;
32321;SDS011;61553;48.994;8.940;2024-02-26T02:33:32;4.18;;;2.15;;
32321;SDS011;61553;48.994;8.940;2024-02-26T02:35:59;6.78;;;2.25;;
32321;SDS011;61553;48.994;8.940;2024-02-26T02:38:24;5.68;;;2.03;;
32321;SDS011;61553;48.994;8.940;2024-02-26T02:40:51;5.10;;;2.33;;
32321;SDS011;61553;48.994;8.940;2024-02-26T02:43:17;4.97;;;2.22;;
32321;SDS011;61553;48.994;8.940;2024-02-26T02:45:43;5.30;;;2.30;;
32321;SDS011;61553;48.994;8.940;2024-02-26T02:48:08;5.38;;;2.40;;
32321;SDS011;61553;48.994;8.940;2024-02-26T02:50:35;6.88;;;2.80;;
32321;SDS011;61553;48.994;8.940;2024-02-26T02:53:01;6.78;;;3.08;;
32321;SDS011;61553;48.994;8.940;2024-02-26T02:55:27;5.53;;;2.90;;
32321;SDS011;61553;48.994;8.940;2024-02-26T02:57:53;4.88;;;2.35;;
32321;SDS011;61553;48.994;8.940;2024-02-26T03:00:18;4.43;;;2.22;;
32321;SDS011;61553;48.994;8.940;2024-02-26T03:02:44;3.63;;;2.20;;
32321;SDS011;61553;48.994;8.940;2024-02-26T03:05:11;5.22;;;1.95;;
32321;SDS011;61553;48.994;8.940;2024-02-26T03:07:37;2.72;;;1.20;;
32321;SDS011;61553;48.994;8.940;2024-02-26T03:10:02;3.78;;;1.30;;
32321;SDS011;61553;48.994;8.940;2024-02-26T03:12:29;2.33;;;1.30;;
32321;SDS011;61553;48.994;8.940;2024-02-26T03:14:55;4.30;;;1.88;;
32321;SDS011;61553;48.994;8.940;2024-02-26T03:17:21;4.10;;;1.80;;
32321;SDS011;61553;48.994;8.940;2024-02-26T03:19:46;4.28;;;1.80;;
32321;SDS011;61553;48.994;8.940;2024-02-26T03:22:12;4.13;;;1.70;;
32321;SDS011;61553;48.994;8.940;2024-02-26T03:24:38;3.28;;;1.73;;
32321;SDS011;61553;48.994;8.940;2024-02-26T03:27:04;4.32;;;1.92;;
32321;SDS011;61553;48.994;8.940;2024-02-26T03:29:34;3.45;;;1.98;;
32321;SDS011;61553;48.994;8.940;2024-02-26T03:32:00;5.70;;;2.78;;
32321;SDS011;61553;48.994;8.940;2024-02-26T03:34:26;7.70;;;2.70;;
32321;SDS011;61553;48.994;8.940;2024-02-26T03:36:52;4.40;;;1.67;;
32321;SDS011;61553;48.994;8.940;2024-02-26T03:39:17;3.20;;;1.58;;
32321;SDS011;61553;48.994;8.940;2024-02-26T03:41:43;5.32;;;2.63;;
32321;SDS011;61553;48.994;8.940;2024-02-26T03:44:09;4.63;;;2.22;;
32321;SDS011;61553;48.994;8.940;2024-02-26T03:46:34;11.38;;;4.18;;
32321;SDS011;61553;48.994;8.940;2024-02-26T03:49:00;9.77;;;4.88;;
32321;SDS011;61553;48.994;8.940;2024-02-26T03:51:26;8.10;;;3.53;;
32321;SDS011;61553;48.994;8.940;2024-02-26T03:53:56;6.10;;;2.88;;
32321;SDS011;61553;48.994;8.940;2024-02-26T03:56:22;7.10;;;2.80;;
32321;SDS011;61553;48.994;8.940;2024-02-26T03:58:48;7.47;;;2.90;;
32321;SDS011;61553;48.994;8.940;2024-02-26T04:01:13;6.97;;;3.03;;
32321;SDS011;61553;48.994;8.940;2024-02-26T04:03:39;4.40;;;1.55;;
32321;SDS011;61553;48.994;8.940;2024-02-26T04:06:08;5.90;;;2.33;;
32321;SDS011;61553;48.994;8.940;2024-02-26T04:08:34;8.18;;;3.20;;
32321;SDS011;61553;48.994;8.940;2024-02-26T04:11:00;15.50;;;6.80;;
32321;SDS011;61553;48.994;8.940;2024-02-26T04:13:26;6.88;;;3.75;;
32321;SDS011;61553;48.994;8.940;2024-02-26T04:15:51;3.95;;;2.00;;
32321;SDS011;61553;48.994;8.940;2024-02-26T04:18:17;5.80;;;2.10;;
32321;SDS011;61553;48.994;8.940;2024-02-26T04:20:43;4.32;;;1.88;;
32321;SDS011;61553;48.994;8.940;2024-02-26T04:23:08;3.65;;;1.88;;
32321;SDS011;61553;48.994;8.940;2024-02-26T04:25:34;7.03;;;2.08;;
32321;SDS011;61553;48.994;8.940;2024-02-26T04:27:59;8.30;;;4.00;;
32321;SDS011;61553;48.994;8.940;2024-02-26T04:30:25;5.05;;;2.42;;
32321;SDS011;61553;48.994;8.940;2024-02-26T04:32:51;4.05;;;1.80;;
32321;SDS011;61553;48.994;8.940;2024-02-26T04:35:17;4.22;;;1.90;;
32321;SDS011;61553;48.994;8.940;2024-02-26T04:37:42;4.32;;;1.75;;
32321;SDS011;61553;48.994;8.940;2024-02-26T04:40:08;9.13;;;3.92;;
32321;SDS011;61553;48.994;8.940;2024-02-26T04:42:34;12.63;;;7.28;;
32321;SDS011;61553;48.994;8.940;2024-02-26T04:45:00;7.13;;;3.35;;
32321;SDS011;61553;48.994;8.940;2024-02-26T04:47:25;6.00;;;2.92;;
32321;SDS011;61553;48.994;8.940;2024-02-26T04:49:51;5.45;;;3.15;;
32321;SDS011;61553;48.994;8.940;2024-02-26T04:52:17;5.55;;;2.72;;
32321;SDS011;61553;48.994;8.940;2024-02-26T04:54:43;3.20;;;1.73;;
32321;SDS011;61553;48.994;8.940;2024-02-26T04:57:08;6.65;;;2.33;;
32321;SDS011;61553;48.994;8.940;2024-02-26T04:59:34;5.88;;;3.30;;
32321;SDS011;61553;48.994;8.940;2024-02-26T05:02:00;4.68;;;2.47;;
32321;SDS011;61553;48.994;8.940;2024-02-26T05:04:25;4.60;;;2.17;;
32321;SDS011;61553;48.994;8.940;2024-02-26T05:06:51;11.35;;;5.47;;
32321;SDS011;61553;48.994;8.940;2024-02-26T05:09:16;13.95;;;5.80;;
32321;SDS011;61553;48.994;8.940;2024-02-26T05:11:42;9.05;;;4.28;;
32321;SDS011;61553;48.994;8.940;2024-02-26T05:14:08;6.82;;;2.97;;
32321;SDS011;61553;48.994;8.940;2024-02-26T05:16:34;5.38;;;2.10;;
32321;SDS011;61553;48.994;8.940;2024-02-26T05:18:59;7.30;;;3.35;;
32321;SDS011;61553;48.994;8.940;2024-02-26T05:21:26;4.13;;;2.25;;
32321;SDS011;61553;48.994;8.940;2024-02-26T05:23:51;6.75;;;3.22;;
32321;SDS011;61553;48.994;8.940;2024-02-26T05:26:20;6.13;;;3.10;;
32321;SDS011;61553;48.994;8.940;2024-02-26T05:28:47;5.88;;;2.85;;
32321;SDS011;61553;48.994;8.940;2024-02-26T05:31:13;7.45;;;3.80;;
32321;SDS011;61553;48.994;8.940;2024-02-26T05:33:39;9.55;;;4.53;;
32321;SDS011;61553;48.994;8.940;2024-02-26T05:36:04;7.00;;;3.65;;
32321;SDS011;61553;48.994;8.940;2024-02-26T05:38:30;6.88;;;3.22;;
32321;SDS011;61553;48.994;8.940;2024-02-26T05:40:57;5.63;;;3.05;;
32321;SDS011;61553;48.994;8.940;2024-02-26T05:43:24;4.70;;;2.60;;
32321;SDS011;61553;48.994;8.940;2024-02-26T05:45:50;6.15;;;2.33;;
32321;SDS011;61553;48.994;8.940;2024-02-26T05:48:15;6.60;;;3.03;;
32321;SDS011;61553;48.994;8.940;2024-02-26T05:50:41;4.72;;;2.60;;
32321;SDS011;61553;48.994;8.940;2024-02-26T05:53:06;21.73;;;11.05;;
32321;SDS011;61553;48.994;8.940;2024-02-26T05:55:32;7.13;;;4.07;;
32321;SDS011;61553;48.994;8.940;2024-02-26T05:57:59;19.65;;;9.40;;
32321;SDS011;61553;48.994;8.940;2024-02-26T06:00:24;40.47;;;17.40;;
32321;SDS011;61553;48.994;8.940;2024-02-26T06:02:50;9.48;;;4.72;;
32321;SDS011;61553;48.994;8.940;2024-02-26T06:05:16;6.95;;;2.90;;
32321;SDS011;61553;48.994;8.940;2024-02-26T06:07:41;18.00;;;8.85;;
32321;SDS011;61553;48.994;8.940;2024-02-26T06:10:07;16.35;;;7.20;;
32321;SDS011;61553;48.994;8.940;2024-02-26T06:12:35;17.33;;;8.73;;
32321;SDS011;61553;48.994;8.940;2024-02-26T06:15:01;11.23;;;6.00;;
32321;SDS011;61553;48.994;8.940;2024-02-26T06:17:26;40.63;;;19.83;;
32321;SDS011;61553;48.994;8.940;2024-02-26T06:19:53;31.92;;;13.40;;
32321;SDS011;61553;48.994;8.940;2024-02-26T06:22:19;44.65;;;18.08;;
32321;SDS011;61553;48.994;8.940;2024-02-26T06:24:44;44.25;;;20.15;;
32321;SDS011;61553;48.994;8.940;2024-02-26T06:27:10;49.35;;;23.42;;
32321;SDS011;61553;48.994;8.940;2024-02-26T06:29:36;24.85;;;12.00;;
32321;SDS011;61553;48.994;8.940;2024-02-26T06:32:01;22.90;;;11.45;;
32321;SDS011;61553;48.994;8.940;2024-02-26T06:34:27;30.48;;;13.43;;
32321;SDS011;61553;48.994;8.940;2024-02-26T06:36:52;20.98;;;10.93;;
32321;SDS011;61553;48.994;8.940;2024-02-26T06:39:18;11.50;;;6.15;;
32321;SDS011;61553;48.994;8.940;2024-02-26T06:41:44;12.10;;;6.15;;
32321;SDS011;61553;48.994;8.940;2024-02-26T06:44:11;14.10;;;7.75;;
32321;SDS011;61553;48.994;8.940;2024-02-26T06:46:38;9.35;;;5.63;;
32321;SDS011;61553;48.994;8.940;2024-02-26T06:49:04;10.32;;;6.60;;
32321;SDS011;61553;48.994;8.940;2024-02-26T06:51:30;12.38;;;5.63;;
32321;SDS011;61553;48.994;8.940;2024-02-26T06:53:55;13.65;;;6.60;;
32321;SDS011;61553;48.994;8.940;2024-02-26T06:56:21;15.32;;;6.22;;
32321;SDS011;61553;48.994;8.940;2024-02-26T06:58:47;9.75;;;5.45;;
32321;SDS011;61553;48.994;8.940;2024-02-26T07:01:12;7.22;;;4.18;;
32321;SDS011;61553;48.994;8.940;2024-02-26T07:03:40;10.10;;;4.60;;
32321;SDS011;61553;48.994;8.940;2024-02-26T07:06:06;9.60;;;4.88;;
32321;SDS011;61553;48.994;8.940;2024-02-26T07:08:31;9.50;;;4.55;;
32321;SDS011;61553;48.994;8.940;2024-02-26T07:10:57;7.97;;;4.18;;
32321;SDS011;61553;48.994;8.940;2024-02-26T07:13:23;10.77;;;4.85;;
32321;SDS011;61553;48.994;8.940;2024-02-26T07:15:48;9.55;;;4.47;;
32321;SDS011;61553;48.994;8.940;2024-02-26T07:18:14;8.13;;;3.53;;
32321;SDS011;61553;48.994;8.940;2024-02-26T07:20:40;4.80;;;2.60;;
32321;SDS011;61553;48.994;8.940;2024-02-26T07:23:05;7.20;;;2.80;;
32321;SDS011;61553;48.994;8.940;2024-02-26T07:25:31;7.50;;;3.45;;
32321;SDS011;61553;48.994;8.940;2024-02-26T07:27:57;6.95;;;3.30;;
32321;SDS011;61553;48.994;8.940;2024-02-26T07:30:23;6.15;;;3.17;;
32321;SDS011;61553;48.994;8.940;2024-02-26T07:32:49;6.60;;;2.88;;
32321;SDS011;61553;48.994;8.940;2024-02-26T07:35:15;10.05;;;5.45;;
32321;SDS011;61553;48.994;8.940;2024-02-26T07:37:42;12.00;;;5.55;;
32321;SDS011;61553;48.994;8.940;2024-02-26T07:40:08;10.02;;;4.80;;
32321;SDS011;61553;48.994;8.940;2024-02-26T07:42:34;8.18;;;4.82;;
32321;SDS011;61553;48.994;8.940;2024-02-26T07:45:00;25.67;;;12.38;;
32321;SDS011;61553;48.994;8.940;2024-02-26T07:47:26;13.13;;;6.57;;
32321;SDS011;61553;48.994;8.940;2024-02-26T07:49:52;11.25;;;4.15;;
32321;SDS011;61553;48.994;8.940;2024-02-26T07:52:18;6.50;;;3.92;;
32321;SDS011;61553;48.994;8.940;2024-02-26T07:54:43;6.20;;;4.00;;
32321;SDS011;61553;48.994;8.940;2024-02-26T07:57:09;8.27;;;3.88;;
32321;SDS011;61553;48.994;8.940;2024-02-26T07:59:34;8.65;;;3.08;;
32321;SDS011;61553;48.994;8.940;2024-02-26T08:02:00;5.63;;;2.40;;
32321;SDS011;61553;48.994;8.940;2024-02-26T08:04:28;10.77;;;4.07;;
32321;SDS011;61553;48.994;8.940;2024-02-26T08:06:54;4.88;;;2.00;;
32321;SDS011;61553;48.994;8.940;2024-02-26T08:09:19;5.07;;;2.33;;
32321;SDS011;61553;48.994;8.940;2024-02-26T08:11:45;6.65;;;2.22;;
32321;SDS011;61553;48.994;8.940;2024-02-26T08:14:10;4.78;;;1.90;;
32321;SDS011;61553;48.994;8.940;2024-02-26T08:16:36;5.05;;;1.77;;
32321;SDS011;61553;48.994;8.940;2024-02-26T08:19:02;5.07;;;1.92;;
32321;SDS011;61553;48.994;8.940;2024-02-26T08:21:28;4.75;;;2.22;;
32321;SDS011;61553;48.994;8.940;2024-02-26T08:23:54;4.05;;;1.95;;
32321;SDS011;61553;48.994;8.940;2024-02-26T08:26:19;4.03;;;2.20;;
32321;SDS011;61553;48.994;8.940;2024-02-26T08:28:47;5.90;;;2.72;;
32321;SDS011;61553;48.994;8.940;2024-02-26T08:31:14;4.38;;;2.40;;
32321;SDS011;61553;48.994;8.940;2024-02-26T08:33:39;3.95;;;2.08;;
32321;SDS011;61553;48.994;8.940;2024-02-26T08:36:05;5.35;;;3.17;;
32321;SDS011;61553;48.994;8.940;2024-02-26T08:38:31;4.53;;;2.15;;
32321;SDS011;61553;48.994;8.940;2024-02-26T08:40:57;4.15;;;2.40;;
32321;SDS011;61553;48.994;8.940;2024-02-26T08:43:22;3.97;;;1.85;;
32321;SDS011;61553;48.994;8.940;2024-02-26T08:45:48;6.72;;;2.33;;
32321;SDS011;61553;48.994;8.940;2024-02-26T08:48:14;3.70;;;1.70;;
32321;SDS011;61553;48.994;8.940;2024-02-26T08:50:40;4.53;;;1.92;;
32321;SDS011;61553;48.994;8.940;2024-02-26T08:53:06;7.05;;;2.55;;
32321;SDS011;61553;48.994;8.940;2024-02-26T08:55:32;3.75;;;1.92;;
32321;SDS011;61553;48.994;8.940;2024-02-26T08:57:58;4.45;;;2.17;;
32321;SDS011;61553;48.994;8.940;2024-02-26T09:00:23;4.35;;;2.50;;
32321;SDS011;61553;48.994;8.940;2024-02-26T09:02:49;4.50;;;2.40;;
32321;SDS011;61553;48.994;8.940;2024-02-26T09:05:15;5.22;;;2.42;;
32321;SDS011;61553;48.994;8.940;2024-02-26T09:07:40;3.95;;;2.17;;
32321;SDS011;61553;48.994;8.940;2024-02-26T09:10:06;3.47;;;2.25;;
32321;SDS011;61553;48.994;8.940;2024-02-26T09:12:36;6.22;;;2.53;;
32321;SDS011;61553;48.994;8.940;2024-02-26T09:15:02;5.35;;;2.35;;
32321;SDS011;61553;48.994;8.940;2024-02-26T09:17:28;6.93;;;2.70;;
32321;SDS011;61553;48.994;8.940;2024-02-26T09:19:54;7.28;;;2.58;;
32321;SDS011;61553;48.994;8.940;2024-02-26T09:22:19;5.85;;;2.42;;
32321;SDS011;61553;48.994;8.940;2024-02-26T09:24:45;4.13;;;1.83;;
32321;SDS011;61553;48.994;8.940;2024-02-26T09:27:11;4.15;;;2.22;;
32321;SDS011;61553;48.994;8.940;2024-02-26T09:29:36;7.32;;;3.20;;
32321;SDS011;61553;48.994;8.940;2024-02-26T09:32:02;6.78;;;3.58;;
32321;SDS011;61553;48.994;8.940;2024-02-26T09:34:28;3.90;;;1.75;;
32321;SDS011;61553;48.994;8.940;2024-02-26T09:36:53;4.88;;;2.40;;
32321;SDS011;61553;48.994;8.940;2024-02-26T09:39:19;3.53;;;1.80;;
32321;SDS011;61553;48.994;8.940;2024-02-26T09:41:47;3.25;;;1.52;;
32321;SDS011;61553;48.994;8.940;2024-02-26T09:44:20;3.45;;;1.83;;
32321;SDS011;61553;48.994;8.940;2024-02-26T09:46:47;3.60;;;1.90;;
32321;SDS011;61553;48.994;8.940;2024-02-26T09:49:16;3.70;;;2.10;;
32321;SDS011;61553;48.994;8.940;2024-02-26T09:51:43;3.80;;;2.13;;
32321;SDS011;61553;48.994;8.940;2024-02-26T09:54:09;5.03;;;2.97;;
32321;SDS011;61553;48.994;8.940;2024-02-26T09:56:37;4.57;;;1.75;;
32321;SDS011;61553;48.994;8.940;2024-02-26T09:59:06;7.50;;;1.85;;
32321;SDS011;61553;48.994;8.940;2024-02-26T10:01:38;5.30;;;1.77;;
32321;SDS011;61553;48.994;8.940;2024-02-26T10:04:07;4.45;;;2.30;;
32321;SDS011;61553;48.994;8.940;2024-02-26T10:06:34;4.68;;;2.40;;
32321;SDS011;61553;48.994;8.940;2024-02-26T10:09:02;4.65;;;2.30;;
32321;SDS011;61553;48.994;8.940;2024-02-26T10:11:31;3.22;;;1.65;;
32321;SDS011;61553;48.994;8.940;2024-02-26T10:13:57;3.10;;;1.42;;
32321;SDS011;61553;48.994;8.940;2024-02-26T10:16:23;3.00;;;1.45;;
32321;SDS011;61553;48.994;8.940;2024-02-26T10:18:53;4.22;;;2.00;;
32321;SDS011;61553;48.994;8.940;2024-02-26T10:21:21;4.05;;;2.15;;
32321;SDS011;61553;48.994;8.940;2024-02-26T10:23:48;3.33;;;1.60;;
32321;SDS011;61553;48.994;8.940;2024-02-26T10:26:15;3.90;;;2.05;;
32321;SDS011;61553;48.994;8.940;2024-02-26T10:28:42;2.83;;;1.33;;
32321;SDS011;61553;48.994;8.940;2024-02-26T10:31:09;2.83;;;1.50;;
32321;SDS011;61553;48.994;8.940;2024-02-26T10:33:36;5.00;;;1.48;;
32321;SDS011;61553;48.994;8.940;2024-02-26T10:36:02;3.83;;;1.80;;
32321;SDS011;61553;48.994;8.940;2024-02-26T10:38:33;5.22;;;2.00;;
32321;SDS011;61553;48.994;8.940;2024-02-26T10:41:01;3.58;;;1.80;;
32321;SDS011;61553;48.994;8.940;2024-02-26T10:43:28;3.17;;;1.63;;
32321;SDS011;61553;48.994;8.940;2024-02-26T10:45:56;3.50;;;1.40;;
32321;SDS011;61553;48.994;8.940;2024-02-26T10:48:23;3.33;;;1.50;;
32321;SDS011;61553;48.994;8.940;2024-02-26T10:50:48;3.13;;;1.38;;
32321;SDS011;61553;48.994;8.940;2024-02-26T10:53:16;2.92;;;1.10;;
32321;SDS011;61553;48.994;8.940;2024-02-26T10:55:48;3.60;;;1.55;;
32321;SDS011;61553;48.994;8.940;2024-02-26T10:58:19;2.67;;;1.20;;
32321;SDS011;61553;48.994;8.940;2024-02-26T11:00:45;14.18;;;6.50;;
32321;SDS011;61553;48.994;8.940;2024-02-26T11:03:13;3.85;;;1.80;;
32321;SDS011;61553;48.994;8.940;2024-02-26T11:05:42;2.25;;;1.25;;
32321;SDS011;61553;48.994;8.940;2024-02-26T11:08:09;4.03;;;1.10;;
32321;SDS011;61553;48.994;8.940;2024-02-26T11:10:36;6.53;;;3.08;;
32321;SDS011;61553;48.994;8.940;2024-02-26T11:13:03;6.65;;;2.55;;
32321;SDS011;61553;48.994;8.940;2024-02-26T11:15:31;5.15;;;2.30;;
32321;SDS011;61553;48.994;8.940;2024-02-26T11:17:58;4.78;;;2.13;;
32321;SDS011;61553;48.994;8.940;2024-02-26T11:20:28;3.60;;;1.70;;
32321;SDS011;61553;48.994;8.940;2024-02-26T11:22:54;3.33;;;1.42;;
32321;SDS011;61553;48.994;8.940;2024-02-26T11:25:20;3.95;;;1.58;;
32321;SDS011;61553;48.994;8.940;2024-02-26T11:28:28;2.92;;;1.27;;
32321;SDS011;61553;48.994;8.940;2024-02-26T11:30:38;2.13;;;1.00;;
32321;SDS011;61553;48.994;8.940;2024-02-26T11:33:08;2.45;;;0.90;;
32321;SDS011;61553;48.994;8.940;2024-02-26T11:35:37;2.00;;;0.90;;
32321;SDS011;61553;48.994;8.940;2024-02-26T11:38:04;2.17;;;1.08;;
32321;SDS011;61553;48.994;8.940;2024-02-26T11:40:31;2.22;;;1.15;;
32321;SDS011;61553;48.994;8.940;2024-02-26T11:42:58;4.47;;;1.20;;
32321;SDS011;61553;48.994;8.940;2024-02-26T11:48:11;4.55;;;2.00;;
32321;SDS011;61553;48.994;8.940;2024-02-26T11:50:41;3.88;;;1.80;;
32321;SDS011;61553;48.994;8.940;2024-02-26T11:58:40;1.45;;;0.90;;
32321;SDS011;61553;48.994;8.940;2024-02-26T12:01:35;2.92;;;1.23;;
32321;SDS011;61553;48.994;8.940;2024-02-26T12:04:19;4.93;;;1.60;;
32321;SDS011;61553;48.994;8.940;2024-02-26T12:12:05;4.07;;;1.60;;
32321;SDS011;61553;48.994;8.940;2024-02-26T12:14:38;6.30;;;3.00;;
32321;SDS011;61553;48.994;8.940;2024-02-26T12:17:06;5.25;;;2.25;;
32321;SDS011;61553;48.994;8.940;2024-02-26T12:19:34;3.92;;;1.73;;
32321;SDS011;61553;48.994;8.940;2024-02-26T12:22:01;3.78;;;1.67;;
32321;SDS011;61553;48.994;8.940;2024-02-26T12:24:27;8.88;;;3.03;;
32321;SDS011;61553;48.994;8.940;2024-02-26T12:26:53;4.80;;;2.05;;
32321;SDS011;61553;48.994;8.940;2024-02-26T12:29:18;3.35;;;1.40;;
32321;SDS011;61553;48.994;8.940;2024-02-26T12:31:44;5.50;;;2.58;;
32321;SDS011;61553;48.994;8.940;2024-02-26T12:34:10;4.00;;;1.55;;
32321;SDS011;61553;48.994;8.940;2024-02-26T12:36:36;3.58;;;1.20;;
32321;SDS011;61553;48.994;8.940;2024-02-26T12:39:02;4.93;;;1.92;;
32321;SDS011;61553;48.994;8.940;2024-02-26T12:41:30;5.53;;;2.38;;
32321;SDS011;61553;48.994;8.940;2024-02-26T12:43:57;5.95;;;2.58;;
32321;SDS011;61553;48.994;8.940;2024-02-26T12:46:23;4.93;;;1.98;;
32321;SDS011;61553;48.994;8.940;2024-02-26T12:48:49;4.00;;;1.55;;
32321;SDS011;61553;48.994;8.940;2024-02-26T12:51:15;10.02;;;4.28;;
32321;SDS011;61553;48.994;8.940;2024-02-26T12:53:42;3.55;;;2.10;;
32321;SDS011;61553;48.994;8.940;2024-02-26T12:56:09;3.10;;;1.88;;
32321;SDS011;61553;48.994;8.940;2024-02-26T12:58:37;5.60;;;2.95;;
32321;SDS011;61553;48.994;8.940;2024-02-26T13:01:04;5.25;;;3.58;;
32321;SDS011;61553;48.994;8.940;2024-02-26T13:03:31;7.60;;;2.50;;
32321;SDS011;61553;48.994;8.940;2024-02-26T13:05:59;15.10;;;9.15;;
32321;SDS011;61553;48.994;8.940;2024-02-26T13:08:25;4.93;;;2.38;;
32321;SDS011;61553;48.994;8.940;2024-02-26T13:10:51;5.32;;;1.20;;
32321;SDS011;61553;48.994;8.940;2024-02-26T13:13:18;5.15;;;1.67;;
32321;SDS011;61553;48.994;8.940;2024-02-26T13:15:45;4.10;;;1.40;;
32321;SDS011;61553;48.994;8.940;2024-02-26T13:18:11;2.35;;;1.10;;
32321;SDS011;61553;48.994;8.940;2024-02-26T13:20:38;2.58;;;1.33;;
32321;SDS011;61553;48.994;8.940;2024-02-26T13:23:15;2.03;;;1.00;;
32321;SDS011;61553;48.994;8.940;2024-02-26T13:25:41;4.22;;;1.83;;
32321;SDS011;61553;48.994;8.940;2024-02-26T13:28:13;2.38;;;1.30;;
32321;SDS011;61553;48.994;8.940;2024-02-26T13:30:57;4.30;;;1.40;;
32321;SDS011;61553;48.994;8.940;2024-02-26T13:33:23;3.83;;;2.28;;
32321;SDS011;61553;48.994;8.940;2024-02-26T13:35:50;1.35;;;0.63;;
32321;SDS011;61553;48.994;8.940;2024-02-26T13:38:16;2.50;;;1.08;;
32321;SDS011;61553;48.994;8.940;2024-02-26T13:40:42;3.10;;;1.35;;
32321;SDS011;61553;48.994;8.940;2024-02-26T13:43:08;5.00;;;2.70;;
32321;SDS011;61553;48.994;8.940;2024-02-26T13:45:34;2.63;;;1.20;;
32321;SDS011;61553;48.994;8.940;2024-02-26T13:48:09;4.25;;;2.08;;
32321;SDS011;61553;48.994;8.940;2024-02-26T13:50:36;4.65;;;1.50;;
32321;SDS011;61553;48.994;8.940;2024-02-26T13:53:02;3.60;;;2.03;;
32321;SDS011;61553;48.994;8.940;2024-02-26T13:55:29;3.08;;;1.38;;
32321;SDS011;61553;48.994;8.940;2024-02-26T13:57:57;6.95;;;4.15;;
32321;SDS011;61553;48.994;8.940;2024-02-26T14:00:23;5.95;;;3.35;;
32321;SDS011;61553;48.994;8.940;2024-02-26T14:02:52;7.18;;;4.57;;
32321;SDS011;61553;48.994;8.940;2024-02-26T14:05:18;6.82;;;4.90;;
32321;SDS011;61553;48.994;8.940;2024-02-26T14:07:43;5.15;;;3.38;;
32321;SDS011;61553;48.994;8.940;2024-02-26T14:10:11;6.85;;;4.43;;
32321;SDS011;61553;48.994;8.940;2024-02-26T14:12:37;8.60;;;5.97;;
32321;SDS011;61553;48.994;8.940;2024-02-26T14:15:04;6.25;;;4.47;;
32321;SDS011;61553;48.994;8.940;2024-02-26T14:17:33;4.95;;;2.35;;
32321;SDS011;61553;48.994;8.940;2024-02-26T14:19:59;2.05;;;1.00;;
32321;SDS011;61553;48.994;8.940;2024-02-26T14:22:24;6.97;;;2.78;;
32321;SDS011;61553;48.994;8.940;2024-02-26T14:24:55;1.67;;;0.80;;
32321;SDS011;61553;48.994;8.940;2024-02-26T14:27:21;1.63;;;0.77;;
32321;SDS011;61553;48.994;8.940;2024-02-26T14:29:47;2.58;;;0.85;;
32321;SDS011;61553;48.994;8.940;2024-02-26T14:32:13;1.20;;;0.55;;
32321;SDS011;61553;48.994;8.940;2024-02-26T14:34:39;5.05;;;0.60;;
32321;SDS011;61553;48.994;8.940;2024-02-26T14:37:05;2.45;;;0.70;;
32321;SDS011;61553;48.994;8.940;2024-02-26T14:39:31;1.00;;;0.60;;
32321;SDS011;61553;48.994;8.940;2024-02-26T14:41:57;4.82;;;1.60;;
32321;SDS011;61553;48.994;8.940;2024-02-26T14:44:23;2.67;;;0.70;;
32321;SDS011;61553;48.994;8.940;2024-02-26T14:46:49;4.03;;;0.50;;
32321;SDS011;61553;48.994;8.940;2024-02-26T14:49:15;2.72;;;1.30;;
32321;SDS011;61553;48.994;8.940;2024-02-26T14:51:42;1.55;;;0.73;;
32321;SDS011;61553;48.994;8.940;2024-02-26T14:54:09;1.25;;;0.70;;
32321;SDS011;61553;48.994;8.940;2024-02-26T14:56:36;0.75;;;0.50;;